Nearby METAR Reports

 

KLXT - Lees Summit Muni, Missouri, USA
Distance from station: E 5mi, 9km
Updated: Tue, 12-Dec-2017 10:53am CST
Clear
Clear
 Wind from WNW
Wind: WNW 9 mph , 15 km/h
Temperature: 30°F , -1°C
Wind Chill: 22°F , -6°C
Dew Point: 10°F , -12°C
Humidity: 43%
Barometer: 30.34 inHg , 1027.4 hPa
Clouds: Clear
Visibility: 10 miles , 16 km
2017/12/12 16:53 KLXT 121653Z AUTO 29008KT 10SM CLR M01/M12 A3034 RMK AO2 SLP284 T10111117
KMKC - Kansas City/Dntn, Missouri, USA
Distance from station: NW 12mi, 19km
Updated: Tue, 12-Dec-2017 10:54am CST
Clear
Clear
 Wind from NW
Wind: NW 6 mph , 9 km/h
Temperature: 30°F , -1°C
Wind Chill: 24°F , -4°C
Dew Point: 14°F , -10°C
Humidity: 51%
Barometer: 30.35 inHg , 1027.8 hPa
Clouds: Clear
Visibility: 10 miles , 16 km
2017/12/12 16:54 KMKC 121654Z 31005KT 10SM CLR M01/M10 A3035 RMK AO2 SLP285 T10111100
 
KIXD - Olathe/Industria, Kansas, USA
Distance from station: WSW 25mi, 41km
Updated: Tue, 12-Dec-2017 10:53am CST
Clear
Clear
 Wind from W
Wind: W 8 mph , 13 km/h
Temperature: 28°F , -2°C
Wind Chill: 20°F , -7°C
Dew Point: 12°F , -11°C
Humidity: 51%
Barometer: 30.35 inHg , 1027.8 hPa
Clouds: Clear
Visibility: 10 miles , 16 km
2017/12/12 16:53 KIXD 121653Z 28007KT 10SM CLR M02/M11 A3035 RMK AO2 SLP287 T10171106
KMCI - Kansas City/Intl, Missouri, USA
Distance from station: NW 26mi, 42km
Updated: Tue, 12-Dec-2017 10:53am CST
Few Clouds
Few Clouds
 Wind from W
Wind: W 6 mph , 9 km/h
Temperature: 28°F , -2°C
Wind Chill: 21°F , -6°C
Dew Point: 14°F , -10°C
Humidity: 55%
Barometer: 30.34 inHg , 1027.4 hPa
Clouds: Few Clouds
Visibility: 10 miles , 16 km
Cloud details: Few Clouds 25000 ft
2017/12/12 16:53 KMCI 121653Z 26005KT 10SM FEW250 M02/M10 A3034 RMK AO2 SLP281 T10171100 $
 
KRCM - Warrensburg Skyh, Missouri, USA
Distance from station: ESE 38mi, 62km
Updated: Tue, 12-Dec-2017 11:55am CST
Clear
Clear
 Wind from WNW
Wind: WNW 6 mph , 9 km/h
Temperature: 32°F , 0°C
Wind Chill: 26°F , -3°C
Dew Point: 7°F , -14°C
Humidity: 34%
Barometer: 30.33 inHg , 1027.1 hPa
Clouds: Clear
Visibility: 10 miles , 16 km
2017/12/12 17:55 KRCM 121755Z AUTO 30005KT 10SM CLR 00/M14 A3033 RMK AO2
KLWC - Lawrence, Kansas, USA
Distance from station: W 40mi, 65km
Updated: Tue, 12-Dec-2017 10:52am CST
Clear
Clear
 Wind from W
Wind: W 6 mph , 9 km/h
Temperature: 32°F , 0°C
Wind Chill: 26°F , -3°C
Dew Point: 12°F , -11°C
Humidity: 44%
Barometer: 30.37 inHg , 1028.4 hPa
Clouds: Clear
Visibility: 10 miles , 16 km
2017/12/12 16:52 KLWC 121652Z AUTO 26005KT 10SM CLR 00/M11 A3037 RMK AO2 SLP290 T00001111
 
KSZL - Whiteman Afb, Missouri, USA
Distance from station: ESE 53mi, 86km
Updated: Tue, 12-Dec-2017 10:56am CST
Partly cloudy
Partly cloudy
 Wind from NW
Wind: NW 7 mph , 11 km/h
Temperature: 30°F , -1°C
Wind Chill: 23°F , -5°C
Dew Point: 9°F , -13°C
Humidity: 40%
Barometer: 30.29 inHg , 1025.7 hPa
Clouds: Partly cloudy
Visibility: 10 miles , 16 km
Cloud details: Partly cloudy 25000 ft
2017/12/12 16:56 KSZL 121656Z 31006KT 10SM SCT250 M01/M13 A3029 RMK AO2A SLP268 T10141130
KSTJ - St. Joseph, Missouri, USA
Distance from station: NNW 59mi, 95km
Updated: Tue, 12-Dec-2017 10:53am CST
Clear
Clear
 Wind from WNW
Wind: WNW 5 mph , 7 km/h
Temperature: 28°F , -2°C
Wind Chill: 22°F , -6°C
Dew Point: 14°F , -10°C
Humidity: 55%
Barometer: 30.36 inHg , 1028.1 hPa
Clouds: Clear
Visibility: 10 miles , 16 km
2017/12/12 16:53 KSTJ 121653Z 30004KT 10SM CLR M02/M10 A3036 RMK AO2 SLP289 T10221100
 
KGLY - Clinton, Missouri, USA
Distance from station: SE 61mi, 98km
Updated: Tue, 12-Dec-2017 11:35am CST
Clear
Clear
 Wind from NNW
Wind: NNW 7 mph , 11 km/h
Temperature: 32°F , 0°C
Wind Chill: 25°F , -4°C
Dew Point: 9°F , -13°C
Humidity: 37%
Barometer: 30.33 inHg , 1027.1 hPa
Clouds: Clear
Visibility: 10 miles , 16 km
2017/12/12 17:35 KGLY 121735Z AUTO 33006KT 10SM CLR 00/M13 A3033 RMK AO2
KFOE - Topeka/Forbes, Kansas, USA
Distance from station: W 64mi, 103km
Updated: Tue, 12-Dec-2017 10:53am CST
Clear
Clear
 Wind from NW
Wind: NW 7 mph , 11 km/h
Temperature: 34°F , 1°C
Wind Chill: 28°F , -2°C
Dew Point: 16°F , -9°C
Humidity: 48%
Barometer: 30.36 inHg , 1028.1 hPa
Clouds: Clear
Visibility: 10 miles , 16 km
2017/12/12 16:53 KFOE 121653Z 31006KT 10SM CLR 01/M09 A3036 RMK AO2 SLP288 T00111094
 
KDMO - Sedalia, Missouri, USA
Distance from station: ESE 72mi, 116km
Updated: Tue, 12-Dec-2017 10:53am CST
Clear
Clear
 Wind from NW
Wind: NW 10 mph , 17 km/h
Temperature: 28°F , -2°C
Wind Chill: 19°F , -7°C
Dew Point: 12°F , -11°C
Humidity: 51%
Barometer: 30.34 inHg , 1027.4 hPa
Clouds: Clear
Visibility: 10 miles , 16 km
2017/12/12 16:53 KDMO 121653Z AUTO 32009KT 10SM CLR M02/M11 A3034 RMK AO2 SLP284 T10171111 $
KCDJ - Chillicothe, Missouri, USA
Distance from station: NE 74mi, 120km
Updated: Tue, 12-Dec-2017 10:52am CST

 Wind from varies
Wind: varies 6 mph , 9 km/h
Temperature: 28°F , -2°C
Wind Chill: 21°F , -6°C
Dew Point: 9°F , -13°C
Humidity: 43%
Barometer: 30.33 inHg , 1027.1 hPa
2017/12/12 16:52 KCDJ 121652Z AUTO VRB05KT M02/M13 A3033 RMK AO1 SLP287 T10221133
 
KFNB - Falls City/Brenn, Nebraska, USA
Distance from station: NW 96mi, 154km
Updated: Tue, 12-Dec-2017 10:53am CST
Clear
Clear
 Wind from WNW
Wind: WNW 8 mph , 13 km/h
Temperature: 30°F , -1°C
Wind Chill: 22°F , -6°C
Dew Point: 16°F , -9°C
Humidity: 55%
Barometer: 30.33 inHg , 1027.1 hPa
Clouds: Clear
Visibility: 10 miles , 16 km
2017/12/12 16:53 KFNB 121653Z AUTO 30007KT 10SM CLR M01/M09 A3033 RMK AO2 SLP281 T10111089
KVER - Boonville, Missouri, USA
Distance from station: E 96mi, 154km
Updated: Tue, 12-Dec-2017 11:35am CST
Clear
Clear
 Wind from W
Wind: W 8 mph , 13 km/h
Temperature: 30°F , -1°C
Wind Chill: 22°F , -6°C
Dew Point: 9°F , -13°C
Humidity: 40%
Barometer: 30.31 inHg , 1026.4 hPa
Clouds: Clear
Visibility: 10 miles , 16 km
2017/12/12 17:35 KVER 121735Z AUTO 27007KT 10SM CLR M01/M13 A3031 RMK AO2 T10091135